createdAt,value
2023-04-28T00:02:57.031Z,14.30
2023-04-28T00:07:59.168Z,14.20
2023-04-28T00:13:02.288Z,14.30
2023-04-28T00:18:04.435Z,14.20
2023-04-28T00:23:06.631Z,14.20
2023-04-28T00:28:08.803Z,14.20
2023-04-28T00:33:11.052Z,14.10
2023-04-28T00:38:13.182Z,14.10
2023-04-28T00:43:15.236Z,14.10
2023-04-28T00:48:17.942Z,14.10
2023-04-28T00:53:20.278Z,14.10
2023-04-28T00:58:22.403Z,14.00
2023-04-28T01:03:25.382Z,14.00
2023-04-28T01:08:36.112Z,14.00
2023-04-28T01:13:41.066Z,13.90
2023-04-28T01:18:48.268Z,13.90
2023-04-28T01:23:51.192Z,13.90
2023-04-28T01:28:53.744Z,13.80
2023-04-28T01:33:56.011Z,13.80
2023-04-28T01:38:58.218Z,13.70
2023-04-28T01:44:00.904Z,13.70
2023-04-28T01:49:03.049Z,13.70
2023-04-28T01:54:05.149Z,13.70
2023-04-28T01:59:07.197Z,13.60
2023-04-28T02:04:10.036Z,13.60
2023-04-28T02:09:13.254Z,13.70
2023-04-28T02:14:15.517Z,13.60
2023-04-28T02:19:17.811Z,13.60
2023-04-28T02:24:19.871Z,13.50
2023-04-28T02:29:22.149Z,13.50
2023-04-28T02:34:24.218Z,13.50
2023-04-28T02:39:27.262Z,13.50
2023-04-28T02:44:31.986Z,13.50
2023-04-28T02:49:34.245Z,13.50
2023-04-28T02:54:37.401Z,13.40
2023-04-28T02:59:40.246Z,13.30
2023-04-28T03:04:42.497Z,13.30
2023-04-28T03:09:46.327Z,13.30
2023-04-28T03:14:48.387Z,13.30
2023-04-28T03:19:51.430Z,13.30
2023-04-28T03:24:53.662Z,13.20
2023-04-28T03:29:56.075Z,13.20
2023-04-28T03:34:58.136Z,13.20
2023-04-28T03:40:00.269Z,13.30
2023-04-28T03:45:03.846Z,13.30
2023-04-28T03:50:08.079Z,13.20
2023-04-28T03:55:10.909Z,13.10
2023-04-28T04:00:13.710Z,13.00
2023-04-28T04:05:18.723Z,13.00
2023-04-28T04:10:21.059Z,12.90
2023-04-28T04:15:24.665Z,12.80
2023-04-28T04:20:26.712Z,12.80
2023-04-28T04:25:28.910Z,12.70
2023-04-28T04:30:31.432Z,12.70
2023-04-28T04:35:34.127Z,12.70
2023-04-28T04:40:36.806Z,12.60
2023-04-28T04:45:39.501Z,12.60
2023-04-28T04:50:42.633Z,12.60
2023-04-28T04:55:44.867Z,12.60
2023-04-28T05:00:46.985Z,12.50
2023-04-28T05:05:49.693Z,12.50
2023-04-28T05:11:04.934Z,12.50
2023-04-28T05:16:07.381Z,12.60
2023-04-28T05:21:20.271Z,12.60
2023-04-28T05:26:24.188Z,12.60
2023-04-28T05:31:30.141Z,12.70
2023-04-28T05:36:33.042Z,12.70
2023-04-28T05:41:38.290Z,12.70
2023-04-28T05:46:41.144Z,12.70
2023-04-28T05:51:44.614Z,12.60
2023-04-28T05:56:46.956Z,12.70
2023-04-28T06:01:50.832Z,12.70
2023-04-28T06:06:53.104Z,12.70
2023-04-28T06:11:56.035Z,12.80
2023-04-28T06:16:58.298Z,12.80
2023-04-28T06:22:00.458Z,12.80
2023-04-28T06:27:02.895Z,12.70
2023-04-28T06:32:05.249Z,12.70
2023-04-28T06:37:07.381Z,12.70
2023-04-28T06:42:09.503Z,12.70
2023-04-28T06:47:14.866Z,12.80
2023-04-28T06:52:17.042Z,12.70
2023-04-28T06:57:19.673Z,12.80
2023-04-28T07:02:21.907Z,12.80
2023-04-28T07:07:24.018Z,12.80
2023-04-28T07:12:26.241Z,12.90
2023-04-28T07:17:28.301Z,13.00
2023-04-28T07:22:30.469Z,13.10
2023-04-28T07:27:32.516Z,13.20
2023-04-28T07:32:34.595Z,13.20
2023-04-28T07:37:37.719Z,13.40
2023-04-28T07:42:39.849Z,13.60
2023-04-28T07:47:42.462Z,13.70
2023-04-28T07:52:44.591Z,13.70
2023-04-28T07:57:46.628Z,13.90
2023-04-28T08:02:48.758Z,13.80
2023-04-28T08:07:50.927Z,13.80
2023-04-28T08:12:53.687Z,13.90
2023-04-28T08:17:55.868Z,14.00
2023-04-28T08:22:58.125Z,14.10
2023-04-28T08:28:00.196Z,14.20
2023-04-28T08:33:02.252Z,14.20
2023-04-28T08:38:04.636Z,14.20
2023-04-28T08:43:08.093Z,14.30
2023-04-28T08:48:21.590Z,14.40
2023-04-28T08:53:27.567Z,14.40
2023-04-28T08:58:29.572Z,14.30
2023-04-28T09:03:35.167Z,14.40
2023-04-28T09:08:37.327Z,14.40
2023-04-28T09:13:40.220Z,14.50
2023-04-28T09:18:57.244Z,14.70
2023-04-28T09:23:59.274Z,14.70
2023-04-28T09:29:13.898Z,14.70
2023-04-28T09:34:16.217Z,14.70
2023-04-28T09:39:30.537Z,14.80
2023-04-28T09:44:32.796Z,14.80
2023-04-28T09:49:55.113Z,14.80
2023-04-28T09:54:57.645Z,15.10
2023-04-28T10:00:00.425Z,15.30
2023-04-28T10:05:03.544Z,15.40
2023-04-28T10:10:07.830Z,15.60
2023-04-28T10:15:10.779Z,16.00
2023-04-28T10:20:16.001Z,16.30
2023-04-28T10:25:35.271Z,16.50
2023-04-28T10:30:38.173Z,16.70
2023-04-28T10:35:44.384Z,16.70
2023-04-28T10:40:54.310Z,16.50
2023-04-28T10:46:01.832Z,16.70
2023-04-28T10:51:09.265Z,16.40
2023-04-28T10:56:12.580Z,16.10
2023-04-28T11:01:29.886Z,16.30
2023-04-28T11:06:40.025Z,16.80
2023-04-28T11:12:00.215Z,16.50
2023-04-28T11:17:04.270Z,15.70
2023-04-28T11:22:16.208Z,15.10
2023-04-28T11:27:24.838Z,15.30
2023-04-28T11:32:28.547Z,15.10
2023-04-28T11:37:30.895Z,14.90
2023-04-28T11:42:34.010Z,15.20
2023-04-28T11:47:39.683Z,15.50
2023-04-28T11:52:53.582Z,16.10
2023-04-28T11:58:25.283Z,15.90
2023-04-28T12:03:27.539Z,15.60
2023-04-28T12:08:30.079Z,15.70
2023-04-28T12:13:32.124Z,16.40
2023-04-28T12:18:35.865Z,16.40
2023-04-28T12:23:38.830Z,17.50
2023-04-28T12:28:44.318Z,17.20
2023-04-28T12:33:46.403Z,17.20
2023-04-28T12:38:49.598Z,17.10
2023-04-28T12:43:52.088Z,17.20
2023-04-28T12:48:54.119Z,17.60
2023-04-28T12:53:56.145Z,17.10
2023-04-28T12:58:58.244Z,17.00
2023-04-28T13:04:00.427Z,17.30
2023-04-28T13:09:04.156Z,17.50
2023-04-28T13:14:06.247Z,17.10
2023-04-28T13:19:10.776Z,16.60
2023-04-28T13:24:13.879Z,17.00
2023-04-28T13:29:16.189Z,16.80
2023-04-28T13:34:18.984Z,16.50
2023-04-28T13:39:22.200Z,17.00
2023-04-28T13:44:24.426Z,16.60
2023-04-28T13:49:26.453Z,16.30
2023-04-28T13:54:28.861Z,16.40
2023-04-28T13:59:31.102Z,16.80
2023-04-28T14:04:33.349Z,16.80
2023-04-28T14:09:35.487Z,16.80
2023-04-28T14:14:40.178Z,16.80
2023-04-28T14:19:42.466Z,16.70
2023-04-28T14:24:44.654Z,17.20
2023-04-28T14:29:50.170Z,17.20
2023-04-28T14:34:52.260Z,17.50
2023-04-28T14:39:54.346Z,18.00
2023-04-28T14:44:56.838Z,17.50
2023-04-28T14:49:59.178Z,17.20
2023-04-28T14:55:03.166Z,16.80
2023-04-28T15:00:08.104Z,16.60
2023-04-28T15:05:14.345Z,16.50
2023-04-28T15:10:16.565Z,16.10
2023-04-28T15:15:18.651Z,15.80
2023-04-28T15:20:23.225Z,15.60
2023-04-28T15:25:26.180Z,15.80
2023-04-28T15:30:28.225Z,15.80
2023-04-28T15:35:32.362Z,15.40
2023-04-28T15:40:34.520Z,15.30
2023-04-28T15:45:37.669Z,15.20
2023-04-28T15:50:40.206Z,15.10
2023-04-28T15:55:42.366Z,14.80
2023-04-28T16:00:46.189Z,14.70
2023-04-28T16:05:48.363Z,14.60
2023-04-28T16:10:51.466Z,14.10
2023-04-28T16:15:54.124Z,14.10
2023-04-28T16:20:56.129Z,14.40
2023-04-28T16:25:58.156Z,14.40
2023-04-28T16:31:00.187Z,14.30
2023-04-28T16:36:02.218Z,13.80
2023-04-28T16:41:04.383Z,13.70
2023-04-28T16:46:07.521Z,13.80
2023-04-28T16:51:11.023Z,13.70
2023-04-28T16:56:13.080Z,13.40
2023-04-28T17:01:15.253Z,13.20
2023-04-28T17:06:17.293Z,13.30
2023-04-28T17:11:19.431Z,13.30
2023-04-28T17:16:21.904Z,13.40
2023-04-28T17:21:29.096Z,13.40
2023-04-28T17:26:32.325Z,13.50
2023-04-28T17:31:35.677Z,13.50
2023-04-28T17:36:38.964Z,13.50
2023-04-28T17:41:41.918Z,13.50
2023-04-28T17:46:44.028Z,13.50
2023-04-28T17:51:46.217Z,13.50
2023-04-28T17:56:48.279Z,13.30
2023-04-28T18:01:50.472Z,13.10
2023-04-28T18:06:52.572Z,13.10
2023-04-28T18:11:55.729Z,13.10
2023-04-28T18:16:58.706Z,13.20
2023-04-28T18:22:00.906Z,13.30
2023-04-28T18:27:02.970Z,13.30
2023-04-28T18:32:05.029Z,13.30
2023-04-28T18:37:07.233Z,13.20
2023-04-28T18:42:10.088Z,13.10
2023-04-28T18:47:12.825Z,13.10
2023-04-28T18:52:15.064Z,13.10
2023-04-28T18:57:17.316Z,13.10
2023-04-28T19:02:19.389Z,13.00
2023-04-28T19:07:23.978Z,13.10
2023-04-28T19:12:26.000Z,13.20
2023-04-28T19:17:28.610Z,13.30
2023-04-28T19:22:41.017Z,13.20
2023-04-28T19:27:44.035Z,13.10
2023-04-28T19:32:46.110Z,13.10
2023-04-28T19:37:49.842Z,13.00
2023-04-28T19:42:52.167Z,13.00
2023-04-28T19:47:55.581Z,13.00
2023-04-28T19:52:57.766Z,13.00
2023-04-28T19:58:01.102Z,13.00
2023-04-28T20:03:03.308Z,12.90
2023-04-28T20:08:05.427Z,12.80
2023-04-28T20:13:07.708Z,12.70
2023-04-28T20:18:09.929Z,12.70
2023-04-28T20:23:12.125Z,12.60
2023-04-28T20:28:14.338Z,12.60
2023-04-28T20:33:17.295Z,12.50
2023-04-28T20:38:19.866Z,12.50
2023-04-28T20:43:24.084Z,12.60
2023-04-28T20:48:26.169Z,12.60
2023-04-28T20:53:28.271Z,12.70
2023-04-28T20:58:31.539Z,12.70
2023-04-28T21:03:33.690Z,12.50
2023-04-28T21:08:35.924Z,12.40
2023-04-28T21:13:38.085Z,12.30
2023-04-28T21:18:40.124Z,12.40
2023-04-28T21:23:42.801Z,12.40
2023-04-28T21:28:44.804Z,12.50
2023-04-28T21:33:46.899Z,12.50
2023-04-28T21:38:49.102Z,12.50
2023-04-28T21:43:51.577Z,12.40
2023-04-28T21:48:53.594Z,12.40
2023-04-28T21:53:55.665Z,12.40
2023-04-28T21:58:57.793Z,12.40
2023-04-28T22:04:02.383Z,12.30
2023-04-28T22:09:05.054Z,12.30
2023-04-28T22:14:07.642Z,12.30
2023-04-28T22:19:09.789Z,12.30
2023-04-28T22:24:12.849Z,12.30
2023-04-28T22:29:15.261Z,12.30
2023-04-28T22:34:18.115Z,12.50
2023-04-28T22:39:20.181Z,12.40
2023-04-28T22:44:22.245Z,12.40
2023-04-28T22:49:28.409Z,12.30
2023-04-28T22:54:34.614Z,12.20
2023-04-28T22:59:36.657Z,12.10
2023-04-28T23:04:38.769Z,12.20
2023-04-28T23:09:40.911Z,12.20
2023-04-28T23:14:42.951Z,12.20
2023-04-28T23:19:45.216Z,12.10
2023-04-28T23:24:47.237Z,12.10
2023-04-28T23:29:49.482Z,12.10
2023-04-28T23:34:51.940Z,12.10
2023-04-28T23:39:54.042Z,12.10
2023-04-28T23:44:56.113Z,12.10
2023-04-28T23:49:58.206Z,12.00
2023-04-28T23:55:00.453Z,12.10
